Aquarius — YP2715 — position and weather

sailwx.info

Track history (hours):
 
Tides and Currents Weather Stations Pressure Air Temp Water Temp Dewpoint Dewpoint Depression Visibility Wind Speed Wind Dir Waves Ship Positions

Aquarius

Last reported at 2017-Dec-11 17:00 UTC. Time now 2017-Dec-13 20:54 UTC.
Position N 44°07' E 028°39'.

Length 67 m; draft 1 m.

Type: Ship. MMSI: 264162715.

Date/timePositionNaut miles runAvg speedWind from/ knotsBaromVisibWave heightAir tempDewpointWater temp
2017-Dec-11 17:00N 44°07' E 028°39'0 0.0
2017-Dec-11 16:30N 44°07' E 028°39'0 0.0
2017-Dec-11 16:00N 44°07' E 028°39'0 0.0
2017-Dec-11 15:30N 44°07' E 028°39'0 0.0
2017-Dec-11 15:00N 44°07' E 028°39'0 0.3
2017-Dec-11 14:30N 44°07' E 028°39'0 0.3
2017-Dec-11 14:00N 44°07' E 028°39'1 2.1
2017-Dec-11 13:30N 44°06' E 028°39'1 2.5
2017-Dec-11 13:00N 44°06' E 028°37'0 0.1
2017-Dec-11 12:30N 44°06' E 028°37'2 3.4
2017-Dec-11 12:00N 44°06' E 028°35'7 3.3
2017-Dec-11 09:52N 44°09' E 028°26'1 3.7
2017-Dec-11 09:30N 44°10' E 028°25'2 3.5
2017-Dec-11 09:00N 44°12' E 028°24'2 3.5
2017-Dec-11 08:30N 44°13' E 028°23'2 3.7
2017-Dec-11 08:00N 44°15' E 028°21'2 3.7
2017-Dec-11 07:30N 44°15' E 028°18'2 3.8
2017-Dec-11 07:00N 44°15' E 028°16'2 3.8
2017-Dec-11 06:30N 44°15' E 028°13'2 3.8
2017-Dec-11 06:00N 44°16' E 028°11'2 3.8
2017-Dec-11 05:30N 44°16' E 028°08'2 3.7
2017-Dec-11 05:00N 44°16' E 028°05'2 3.7
2017-Dec-11 04:28N 44°18' E 028°03'  
Track history (hours):
 
Tides and Currents Weather Stations Pressure Air Temp Water Temp Dewpoint Dewpoint Depression Visibility Wind Speed Wind Dir Waves Ship Positions

Aquarius

Last reported at 2017-Dec-11 17:00 UTC. Time now 2017-Dec-13 20:54 UTC.
Position N 44°07' E 028°39'.

Length 67 m; draft 1 m.

Type: Ship. MMSI: 264162715.

Date/timePositionNaut miles runAvg speedWind from/ knotsBaromVisibWave heightAir tempDewpointWater temp
2017-Dec-11 17:00N 44°07' E 028°39'0 0.0
2017-Dec-11 16:30N 44°07' E 028°39'0 0.0
2017-Dec-11 16:00N 44°07' E 028°39'0 0.0
2017-Dec-11 15:30N 44°07' E 028°39'0 0.0
2017-Dec-11 15:00N 44°07' E 028°39'0 0.3
2017-Dec-11 14:30N 44°07' E 028°39'0 0.3
2017-Dec-11 14:00N 44°07' E 028°39'1 2.1
2017-Dec-11 13:30N 44°06' E 028°39'1 2.5
2017-Dec-11 13:00N 44°06' E 028°37'0 0.1
2017-Dec-11 12:30N 44°06' E 028°37'2 3.4
2017-Dec-11 12:00N 44°06' E 028°35'7 3.3
2017-Dec-11 09:52N 44°09' E 028°26'1 3.7
2017-Dec-11 09:30N 44°10' E 028°25'2 3.5
2017-Dec-11 09:00N 44°12' E 028°24'2 3.5
2017-Dec-11 08:30N 44°13' E 028°23'2 3.7
2017-Dec-11 08:00N 44°15' E 028°21'2 3.7
2017-Dec-11 07:30N 44°15' E 028°18'2 3.8
2017-Dec-11 07:00N 44°15' E 028°16'2 3.8
2017-Dec-11 06:30N 44°15' E 028°13'2 3.8
2017-Dec-11 06:00N 44°16' E 028°11'2 3.8
2017-Dec-11 05:30N 44°16' E 028°08'2 3.7
2017-Dec-11 05:00N 44°16' E 028°05'2 3.7
2017-Dec-11 04:28N 44°18' E 028°03'  

Dump ship's entire track history